Burrwood, Louisiana
Current Conditions -  °F | °C
As of 3:51 PM on Sunday 25 Jan 2015 (Local Time) from KBVE Reporting Station
Clear Clear  
Wind Chill: 62°   Ceiling: Unl
Heat Index: 62°   Visibility: 10mi
Dew Point: 53°   Wind: 18mph
Humidity: 72%   Direction: 240°WSW
Pressure: 29.96"   Gusts: 30mph
Location:  29.2037°N, 89.3875°W
Report Text: KBVE 252151Z AUTO 24016G26KT 10SM CLR 17/12 A2996 RMK AO2 PK WND 24026/2146 SLP145 T01670117
Loading
Personal Weather Stations






























Interactive Weather Map New forecast layout! Learn more

10-Day Weather Forecast

Advertisements
Track Severe Weather on mobile